sensor_id;sensor_type;location;lat;lon;timestamp;temperature;humidity
3478;DHT22;37937;61.490;23.506;2023-04-24T00:00:33;9.50;31.80
3478;DHT22;37937;61.490;23.506;2023-04-24T00:02:59;9.50;32.90
3478;DHT22;37937;61.490;23.506;2023-04-24T00:05:25;9.50;32.50
3478;DHT22;37937;61.490;23.506;2023-04-24T00:07:50;9.40;32.70
3478;DHT22;37937;61.490;23.506;2023-04-24T00:10:19;9.40;33.40
3478;DHT22;37937;61.490;23.506;2023-04-24T00:12:45;9.40;33.90
3478;DHT22;37937;61.490;23.506;2023-04-24T00:15:11;9.40;33.70
3478;DHT22;37937;61.490;23.506;2023-04-24T00:17:36;9.30;33.10
3478;DHT22;37937;61.490;23.506;2023-04-24T00:20:03;9.40;32.70
3478;DHT22;37937;61.490;23.506;2023-04-24T00:22:30;9.40;33.00
3478;DHT22;37937;61.490;23.506;2023-04-24T00:24:56;9.40;33.30
3478;DHT22;37937;61.490;23.506;2023-04-24T00:27:22;9.40;33.30
3478;DHT22;37937;61.490;23.506;2023-04-24T00:29:47;9.40;32.50
3478;DHT22;37937;61.490;23.506;2023-04-24T00:32:13;9.40;33.90
3478;DHT22;37937;61.490;23.506;2023-04-24T00:34:39;9.40;35.60
3478;DHT22;37937;61.490;23.506;2023-04-24T00:37:05;9.40;33.50
3478;DHT22;37937;61.490;23.506;2023-04-24T00:39:31;9.40;35.20
3478;DHT22;37937;61.490;23.506;2023-04-24T00:41:57;9.40;34.80
3478;DHT22;37937;61.490;23.506;2023-04-24T00:44:22;9.40;35.10
3478;DHT22;37937;61.490;23.506;2023-04-24T00:46:48;9.40;35.00
3478;DHT22;37937;61.490;23.506;2023-04-24T00:49:18;9.40;35.00
3478;DHT22;37937;61.490;23.506;2023-04-24T00:51:43;9.40;34.30
3478;DHT22;37937;61.490;23.506;2023-04-24T00:54:11;9.30;34.40
3478;DHT22;37937;61.490;23.506;2023-04-24T00:56:36;9.30;33.70
3478;DHT22;37937;61.490;23.506;2023-04-24T00:59:02;9.40;34.90
3478;DHT22;37937;61.490;23.506;2023-04-24T01:01:28;9.30;35.00
3478;DHT22;37937;61.490;23.506;2023-04-24T01:03:53;9.40;34.70
3478;DHT22;37937;61.490;23.506;2023-04-24T01:06:20;9.40;33.80
3478;DHT22;37937;61.490;23.506;2023-04-24T01:08:46;9.40;34.50
3478;DHT22;37937;61.490;23.506;2023-04-24T01:11:13;9.40;33.80
3478;DHT22;37937;61.490;23.506;2023-04-24T01:13:38;9.40;33.00
3478;DHT22;37937;61.490;23.506;2023-04-24T01:16:04;9.40;33.80
3478;DHT22;37937;61.490;23.506;2023-04-24T01:18:31;9.40;33.80
3478;DHT22;37937;61.490;23.506;2023-04-24T01:20:58;9.40;33.50
3478;DHT22;37937;61.490;23.506;2023-04-24T01:23:24;9.40;33.10
3478;DHT22;37937;61.490;23.506;2023-04-24T01:25:49;9.50;33.50
3478;DHT22;37937;61.490;23.506;2023-04-24T01:28:15;9.50;32.70
3478;DHT22;37937;61.490;23.506;2023-04-24T01:30:41;9.60;32.10
3478;DHT22;37937;61.490;23.506;2023-04-24T01:33:07;9.60;32.60
3478;DHT22;37937;61.490;23.506;2023-04-24T01:35:32;9.60;31.50
3478;DHT22;37937;61.490;23.506;2023-04-24T01:37:58;9.70;31.30
3478;DHT22;37937;61.490;23.506;2023-04-24T01:40:24;9.60;31.80
3478;DHT22;37937;61.490;23.506;2023-04-24T01:42:49;9.60;32.50
3478;DHT22;37937;61.490;23.506;2023-04-24T01:45:15;9.70;30.90
3478;DHT22;37937;61.490;23.506;2023-04-24T01:47:41;9.80;30.00
3478;DHT22;37937;61.490;23.506;2023-04-24T01:50:07;9.80;29.90
3478;DHT22;37937;61.490;23.506;2023-04-24T01:52:32;9.90;30.00
3478;DHT22;37937;61.490;23.506;2023-04-24T01:55:04;9.90;29.70
3478;DHT22;37937;61.490;23.506;2023-04-24T01:57:30;9.90;30.90
3478;DHT22;37937;61.490;23.506;2023-04-24T01:59:56;9.90;30.10
3478;DHT22;37937;61.490;23.506;2023-04-24T02:02:22;9.90;30.80
3478;DHT22;37937;61.490;23.506;2023-04-24T02:04:52;9.90;31.50
3478;DHT22;37937;61.490;23.506;2023-04-24T02:07:17;9.90;31.70
3478;DHT22;37937;61.490;23.506;2023-04-24T02:09:43;9.90;32.20
3478;DHT22;37937;61.490;23.506;2023-04-24T02:12:08;9.90;32.00
3478;DHT22;37937;61.490;23.506;2023-04-24T02:14:34;9.90;31.70
3478;DHT22;37937;61.490;23.506;2023-04-24T02:17:00;9.80;33.80
3478;DHT22;37937;61.490;23.506;2023-04-24T02:19:26;9.80;35.40
3478;DHT22;37937;61.490;23.506;2023-04-24T02:21:51;9.80;38.00
3478;DHT22;37937;61.490;23.506;2023-04-24T02:24:17;9.80;40.90
3478;DHT22;37937;61.490;23.506;2023-04-24T02:26:43;9.70;43.00
3478;DHT22;37937;61.490;23.506;2023-04-24T02:29:08;9.70;42.40
3478;DHT22;37937;61.490;23.506;2023-04-24T02:31:34;9.70;42.60
3478;DHT22;37937;61.490;23.506;2023-04-24T02:33:59;9.70;44.80
3478;DHT22;37937;61.490;23.506;2023-04-24T02:36:25;9.70;45.50
3478;DHT22;37937;61.490;23.506;2023-04-24T02:38:51;9.70;48.60
3478;DHT22;37937;61.490;23.506;2023-04-24T02:41:16;9.70;51.20
3478;DHT22;37937;61.490;23.506;2023-04-24T02:43:42;9.70;52.40
3478;DHT22;37937;61.490;23.506;2023-04-24T02:46:07;9.70;53.30
3478;DHT22;37937;61.490;23.506;2023-04-24T02:48:33;9.70;57.60
3478;DHT22;37937;61.490;23.506;2023-04-24T02:50:58;9.60;63.30
3478;DHT22;37937;61.490;23.506;2023-04-24T02:53:24;9.50;79.40
3478;DHT22;37937;61.490;23.506;2023-04-24T02:55:50;9.40;91.30
3478;DHT22;37937;61.490;23.506;2023-04-24T02:58:15;9.40;94.30
3478;DHT22;37937;61.490;23.506;2023-04-24T03:00:42;9.30;97.30
3478;DHT22;37937;61.490;23.506;2023-04-24T03:03:08;9.20;99.90
3478;DHT22;37937;61.490;23.506;2023-04-24T03:05:34;9.20;99.90
3478;DHT22;37937;61.490;23.506;2023-04-24T03:08:00;9.20;99.90
3478;DHT22;37937;61.490;23.506;2023-04-24T03:10:25;9.10;99.90
3478;DHT22;37937;61.490;23.506;2023-04-24T03:12:51;9.10;99.90
3478;DHT22;37937;61.490;23.506;2023-04-24T03:15:17;9.00;99.90
3478;DHT22;37937;61.490;23.506;2023-04-24T03:17:42;9.00;99.90
3478;DHT22;37937;61.490;23.506;2023-04-24T03:20:08;9.00;99.90
3478;DHT22;37937;61.490;23.506;2023-04-24T03:22:34;8.90;99.90
3478;DHT22;37937;61.490;23.506;2023-04-24T03:25:00;8.90;99.90
3478;DHT22;37937;61.490;23.506;2023-04-24T03:27:25;8.90;99.90
3478;DHT22;37937;61.490;23.506;2023-04-24T03:29:51;8.70;99.90
3478;DHT22;37937;61.490;23.506;2023-04-24T03:32:23;8.70;99.90
3478;DHT22;37937;61.490;23.506;2023-04-24T03:34:48;8.70;99.90
3478;DHT22;37937;61.490;23.506;2023-04-24T03:37:14;8.60;99.90
3478;DHT22;37937;61.490;23.506;2023-04-24T03:39:40;8.60;99.90
3478;DHT22;37937;61.490;23.506;2023-04-24T03:42:06;8.60;99.90
3478;DHT22;37937;61.490;23.506;2023-04-24T03:44:31;8.60;99.90
3478;DHT22;37937;61.490;23.506;2023-04-24T03:46:57;8.60;99.90
3478;DHT22;37937;61.490;23.506;2023-04-24T03:49:23;8.50;99.90
3478;DHT22;37937;61.490;23.506;2023-04-24T03:51:48;8.50;99.90
3478;DHT22;37937;61.490;23.506;2023-04-24T03:54:14;8.50;99.90
3478;DHT22;37937;61.490;23.506;2023-04-24T03:56:40;8.30;99.90
3478;DHT22;37937;61.490;23.506;2023-04-24T03:59:05;8.30;99.90
3478;DHT22;37937;61.490;23.506;2023-04-24T04:01:31;8.30;99.90
3478;DHT22;37937;61.490;23.506;2023-04-24T04:03:56;8.20;99.90
3478;DHT22;37937;61.490;23.506;2023-04-24T04:06:22;8.20;99.90
3478;DHT22;37937;61.490;23.506;2023-04-24T04:08:48;8.20;99.90
3478;DHT22;37937;61.490;23.506;2023-04-24T04:11:13;8.10;99.90
3478;DHT22;37937;61.490;23.506;2023-04-24T04:13:39;8.10;99.90
3478;DHT22;37937;61.490;23.506;2023-04-24T04:16:04;7.90;99.90
3478;DHT22;37937;61.490;23.506;2023-04-24T04:18:30;7.90;99.90
3478;DHT22;37937;61.490;23.506;2023-04-24T04:20:56;7.90;99.90
3478;DHT22;37937;61.490;23.506;2023-04-24T04:23:22;7.80;99.90
3478;DHT22;37937;61.490;23.506;2023-04-24T04:25:48;7.90;99.90
3478;DHT22;37937;61.490;23.506;2023-04-24T04:28:13;7.90;99.90
3478;DHT22;37937;61.490;23.506;2023-04-24T04:30:40;7.90;99.90
3478;DHT22;37937;61.490;23.506;2023-04-24T04:33:06;7.90;99.90
3478;DHT22;37937;61.490;23.506;2023-04-24T04:35:33;7.80;99.90
3478;DHT22;37937;61.490;23.506;2023-04-24T04:37:59;7.80;99.90
3478;DHT22;37937;61.490;23.506;2023-04-24T04:40:24;7.70;99.90
3478;DHT22;37937;61.490;23.506;2023-04-24T04:42:50;7.70;99.90
3478;DHT22;37937;61.490;23.506;2023-04-24T04:45:18;7.60;99.90
3478;DHT22;37937;61.490;23.506;2023-04-24T04:47:43;7.60;99.90
3478;DHT22;37937;61.490;23.506;2023-04-24T04:50:09;7.60;99.90
3478;DHT22;37937;61.490;23.506;2023-04-24T04:52:35;7.60;99.90
3478;DHT22;37937;61.490;23.506;2023-04-24T04:55:01;7.60;99.90
3478;DHT22;37937;61.490;23.506;2023-04-24T04:57:27;7.70;99.90
3478;DHT22;37937;61.490;23.506;2023-04-24T04:59:53;7.70;99.90
3478;DHT22;37937;61.490;23.506;2023-04-24T05:02:18;7.70;99.90
3478;DHT22;37937;61.490;23.506;2023-04-24T05:04:44;7.60;99.90
3478;DHT22;37937;61.490;23.506;2023-04-24T05:07:10;7.70;99.90
3478;DHT22;37937;61.490;23.506;2023-04-24T05:09:36;7.60;99.90
3478;DHT22;37937;61.490;23.506;2023-04-24T05:12:02;7.60;99.90
3478;DHT22;37937;61.490;23.506;2023-04-24T05:14:28;7.60;99.90
3478;DHT22;37937;61.490;23.506;2023-04-24T05:16:53;7.70;99.90
3478;DHT22;37937;61.490;23.506;2023-04-24T05:19:19;7.60;99.90
3478;DHT22;37937;61.490;23.506;2023-04-24T05:21:45;7.60;99.90
3478;DHT22;37937;61.490;23.506;2023-04-24T05:24:11;7.60;99.90
3478;DHT22;37937;61.490;23.506;2023-04-24T05:26:36;7.60;99.90
3478;DHT22;37937;61.490;23.506;2023-04-24T05:29:03;7.60;99.90
3478;DHT22;37937;61.490;23.506;2023-04-24T05:31:29;7.70;99.90
3478;DHT22;37937;61.490;23.506;2023-04-24T05:33:55;7.70;99.90
3478;DHT22;37937;61.490;23.506;2023-04-24T05:36:20;7.70;99.90
3478;DHT22;37937;61.490;23.506;2023-04-24T05:38:46;7.70;99.90
3478;DHT22;37937;61.490;23.506;2023-04-24T05:41:11;7.60;99.90
3478;DHT22;37937;61.490;23.506;2023-04-24T05:43:37;7.60;99.90
3478;DHT22;37937;61.490;23.506;2023-04-24T05:46:02;7.60;99.90
3478;DHT22;37937;61.490;23.506;2023-04-24T05:48:28;7.70;99.90
3478;DHT22;37937;61.490;23.506;2023-04-24T05:50:54;7.60;99.90
3478;DHT22;37937;61.490;23.506;2023-04-24T05:53:19;7.60;99.90
3478;DHT22;37937;61.490;23.506;2023-04-24T05:55:45;7.60;99.90
3478;DHT22;37937;61.490;23.506;2023-04-24T05:58:11;7.60;99.90
3478;DHT22;37937;61.490;23.506;2023-04-24T06:00:37;7.60;99.90
3478;DHT22;37937;61.490;23.506;2023-04-24T06:03:05;7.80;99.90
3478;DHT22;37937;61.490;23.506;2023-04-24T06:05:30;7.80;99.90
3478;DHT22;37937;61.490;23.506;2023-04-24T06:07:56;7.80;99.90
3478;DHT22;37937;61.490;23.506;2023-04-24T06:10:21;7.70;99.90
3478;DHT22;37937;61.490;23.506;2023-04-24T06:12:47;7.70;99.90
3478;DHT22;37937;61.490;23.506;2023-04-24T06:15:13;7.60;99.90
3478;DHT22;37937;61.490;23.506;2023-04-24T06:17:38;7.60;99.90
3478;DHT22;37937;61.490;23.506;2023-04-24T06:20:04;7.60;99.90
3478;DHT22;37937;61.490;23.506;2023-04-24T06:22:31;7.60;99.90
3478;DHT22;37937;61.490;23.506;2023-04-24T06:24:56;7.50;99.90
3478;DHT22;37937;61.490;23.506;2023-04-24T06:27:22;7.60;99.90
3478;DHT22;37937;61.490;23.506;2023-04-24T06:29:48;7.70;99.90
3478;DHT22;37937;61.490;23.506;2023-04-24T06:32:21;7.60;99.90
3478;DHT22;37937;61.490;23.506;2023-04-24T06:34:46;7.70;99.90
3478;DHT22;37937;61.490;23.506;2023-04-24T06:37:12;7.80;99.90
3478;DHT22;37937;61.490;23.506;2023-04-24T06:39:37;7.90;99.90
3478;DHT22;37937;61.490;23.506;2023-04-24T06:42:03;7.90;99.90
3478;DHT22;37937;61.490;23.506;2023-04-24T06:44:28;7.80;99.90
3478;DHT22;37937;61.490;23.506;2023-04-24T06:46:54;7.80;99.90
3478;DHT22;37937;61.490;23.506;2023-04-24T06:49:20;7.90;99.90
3478;DHT22;37937;61.490;23.506;2023-04-24T06:51:46;8.00;99.90
3478;DHT22;37937;61.490;23.506;2023-04-24T06:54:11;8.00;99.90
3478;DHT22;37937;61.490;23.506;2023-04-24T06:56:37;8.20;99.90
3478;DHT22;37937;61.490;23.506;2023-04-24T06:59:03;8.30;99.90
3478;DHT22;37937;61.490;23.506;2023-04-24T07:01:28;8.30;99.90
3478;DHT22;37937;61.490;23.506;2023-04-24T07:03:54;8.40;99.90
3478;DHT22;37937;61.490;23.506;2023-04-24T07:06:19;8.40;99.90
3478;DHT22;37937;61.490;23.506;2023-04-24T07:08:47;8.40;99.90
3478;DHT22;37937;61.490;23.506;2023-04-24T07:11:13;8.30;99.90
3478;DHT22;37937;61.490;23.506;2023-04-24T07:13:39;8.40;99.90
3478;DHT22;37937;61.490;23.506;2023-04-24T07:16:07;8.40;99.90
3478;DHT22;37937;61.490;23.506;2023-04-24T07:18:33;8.50;99.90
3478;DHT22;37937;61.490;23.506;2023-04-24T07:20:59;8.60;99.90
3478;DHT22;37937;61.490;23.506;2023-04-24T07:23:24;8.80;99.90
3478;DHT22;37937;61.490;23.506;2023-04-24T07:25:50;8.70;99.90
3478;DHT22;37937;61.490;23.506;2023-04-24T07:28:16;8.80;99.90
3478;DHT22;37937;61.490;23.506;2023-04-24T07:30:43;9.00;99.90
3478;DHT22;37937;61.490;23.506;2023-04-24T07:33:08;8.90;99.90
3478;DHT22;37937;61.490;23.506;2023-04-24T07:35:36;8.90;99.90
3478;DHT22;37937;61.490;23.506;2023-04-24T07:38:02;8.80;99.90
3478;DHT22;37937;61.490;23.506;2023-04-24T07:40:27;8.90;99.90
3478;DHT22;37937;61.490;23.506;2023-04-24T07:42:53;8.70;99.90
3478;DHT22;37937;61.490;23.506;2023-04-24T07:45:18;8.80;99.90
3478;DHT22;37937;61.490;23.506;2023-04-24T07:47:44;8.80;99.90
3478;DHT22;37937;61.490;23.506;2023-04-24T07:50:11;8.90;99.90
3478;DHT22;37937;61.490;23.506;2023-04-24T07:52:37;9.00;99.90
3478;DHT22;37937;61.490;23.506;2023-04-24T07:55:03;9.10;99.90
3478;DHT22;37937;61.490;23.506;2023-04-24T07:57:29;9.40;99.90
3478;DHT22;37937;61.490;23.506;2023-04-24T07:59:54;9.30;99.90
3478;DHT22;37937;61.490;23.506;2023-04-24T08:02:20;9.20;99.90
3478;DHT22;37937;61.490;23.506;2023-04-24T08:04:52;9.30;99.90
3478;DHT22;37937;61.490;23.506;2023-04-24T08:07:18;9.30;99.90
3478;DHT22;37937;61.490;23.506;2023-04-24T08:09:43;9.30;99.90
3478;DHT22;37937;61.490;23.506;2023-04-24T08:12:09;9.20;99.90
3478;DHT22;37937;61.490;23.506;2023-04-24T08:14:35;9.30;99.90
3478;DHT22;37937;61.490;23.506;2023-04-24T08:17:00;9.40;99.90
3478;DHT22;37937;61.490;23.506;2023-04-24T08:19:26;9.50;99.90
3478;DHT22;37937;61.490;23.506;2023-04-24T08:21:52;9.50;99.90
3478;DHT22;37937;61.490;23.506;2023-04-24T08:24:17;9.50;99.90
3478;DHT22;37937;61.490;23.506;2023-04-24T08:26:43;9.40;99.90
3478;DHT22;37937;61.490;23.506;2023-04-24T08:29:09;9.10;99.90
3478;DHT22;37937;61.490;23.506;2023-04-24T08:31:34;9.20;99.90
3478;DHT22;37937;61.490;23.506;2023-04-24T08:34:00;9.40;99.90
3478;DHT22;37937;61.490;23.506;2023-04-24T08:36:26;9.30;99.90
3478;DHT22;37937;61.490;23.506;2023-04-24T08:38:52;9.10;99.90
3478;DHT22;37937;61.490;23.506;2023-04-24T08:41:18;8.50;99.90
3478;DHT22;37937;61.490;23.506;2023-04-24T08:43:45;8.80;99.90
3478;DHT22;37937;61.490;23.506;2023-04-24T08:46:11;8.80;99.90
3478;DHT22;37937;61.490;23.506;2023-04-24T08:48:38;8.90;99.90
3478;DHT22;37937;61.490;23.506;2023-04-24T08:51:04;9.10;99.90
3478;DHT22;37937;61.490;23.506;2023-04-24T08:53:32;9.30;99.90
3478;DHT22;37937;61.490;23.506;2023-04-24T08:55:57;9.10;99.90
3478;DHT22;37937;61.490;23.506;2023-04-24T08:58:26;8.90;99.90
3478;DHT22;37937;61.490;23.506;2023-04-24T09:00:54;8.90;99.90
3478;DHT22;37937;61.490;23.506;2023-04-24T09:03:19;8.90;99.90
3478;DHT22;37937;61.490;23.506;2023-04-24T09:05:46;8.90;99.90
3478;DHT22;37937;61.490;23.506;2023-04-24T09:08:13;8.80;99.90
3478;DHT22;37937;61.490;23.506;2023-04-24T09:10:39;9.00;99.90
3478;DHT22;37937;61.490;23.506;2023-04-24T09:13:05;9.00;99.90
3478;DHT22;37937;61.490;23.506;2023-04-24T09:15:31;9.10;99.90
3478;DHT22;37937;61.490;23.506;2023-04-24T09:17:57;8.80;99.90
3478;DHT22;37937;61.490;23.506;2023-04-24T09:20:23;8.70;99.90
3478;DHT22;37937;61.490;23.506;2023-04-24T09:22:48;8.90;99.90
3478;DHT22;37937;61.490;23.506;2023-04-24T09:25:18;9.00;99.90
3478;DHT22;37937;61.490;23.506;2023-04-24T09:27:44;9.40;99.90
3478;DHT22;37937;61.490;23.506;2023-04-24T09:30:10;9.30;99.90
3478;DHT22;37937;61.490;23.506;2023-04-24T09:32:36;9.30;99.90
3478;DHT22;37937;61.490;23.506;2023-04-24T09:35:06;9.20;99.90
3478;DHT22;37937;61.490;23.506;2023-04-24T09:37:40;9.00;99.90
3478;DHT22;37937;61.490;23.506;2023-04-24T09:40:07;9.10;99.90
3478;DHT22;37937;61.490;23.506;2023-04-24T09:42:33;9.10;99.90
3478;DHT22;37937;61.490;23.506;2023-04-24T09:44:58;9.40;99.00
3478;DHT22;37937;61.490;23.506;2023-04-24T09:47:24;9.40;99.10
3478;DHT22;37937;61.490;23.506;2023-04-24T09:49:50;9.30;99.10
3478;DHT22;37937;61.490;23.506;2023-04-24T09:52:15;9.20;97.90
3478;DHT22;37937;61.490;23.506;2023-04-24T09:54:41;9.40;98.70
3478;DHT22;37937;61.490;23.506;2023-04-24T09:57:07;9.60;97.60
3478;DHT22;37937;61.490;23.506;2023-04-24T09:59:33;10.10;94.60
3478;DHT22;37937;61.490;23.506;2023-04-24T10:02:01;10.50;92.40
3478;DHT22;37937;61.490;23.506;2023-04-24T10:04:27;10.50;85.50
3478;DHT22;37937;61.490;23.506;2023-04-24T10:06:54;10.80;85.30
3478;DHT22;37937;61.490;23.506;2023-04-24T10:09:24;10.80;81.00
3478;DHT22;37937;61.490;23.506;2023-04-24T10:11:50;10.70;81.80
3478;DHT22;37937;61.490;23.506;2023-04-24T10:14:17;10.70;75.60
3478;DHT22;37937;61.490;23.506;2023-04-24T10:16:43;10.50;77.70
3478;DHT22;37937;61.490;23.506;2023-04-24T10:19:09;10.90;76.50
3478;DHT22;37937;61.490;23.506;2023-04-24T10:21:36;11.10;77.90
3478;DHT22;37937;61.490;23.506;2023-04-24T10:24:07;11.60;75.90
3478;DHT22;37937;61.490;23.506;2023-04-24T10:26:33;11.50;71.60
3478;DHT22;37937;61.490;23.506;2023-04-24T10:28:59;11.50;67.40
3478;DHT22;37937;61.490;23.506;2023-04-24T10:31:28;11.60;68.90
3478;DHT22;37937;61.490;23.506;2023-04-24T10:33:56;11.70;65.50
3478;DHT22;37937;61.490;23.506;2023-04-24T10:36:22;12.00;63.30
3478;DHT22;37937;61.490;23.506;2023-04-24T10:38:48;12.00;58.40
3478;DHT22;37937;61.490;23.506;2023-04-24T10:41:16;11.90;61.10
3478;DHT22;37937;61.490;23.506;2023-04-24T10:43:45;12.20;63.90
3478;DHT22;37937;61.490;23.506;2023-04-24T10:46:11;12.00;57.40
3478;DHT22;37937;61.490;23.506;2023-04-24T10:48:42;12.30;59.30
3478;DHT22;37937;61.490;23.506;2023-04-24T10:51:10;12.30;58.60
3478;DHT22;37937;61.490;23.506;2023-04-24T10:53:38;12.20;58.00
3478;DHT22;37937;61.490;23.506;2023-04-24T10:56:05;12.20;56.00
3478;DHT22;37937;61.490;23.506;2023-04-24T10:58:41;12.10;56.50
3478;DHT22;37937;61.490;23.506;2023-04-24T11:01:22;12.10;56.60
3478;DHT22;37937;61.490;23.506;2023-04-24T11:03:54;11.90;58.20
3478;DHT22;37937;61.490;23.506;2023-04-24T11:06:28;12.20;55.70
3478;DHT22;37937;61.490;23.506;2023-04-24T11:08:58;12.40;54.60
3478;DHT22;37937;61.490;23.506;2023-04-24T11:11:24;12.40;52.40
3478;DHT22;37937;61.490;23.506;2023-04-24T11:21:47;12.50;51.50
3478;DHT22;37937;61.490;23.506;2023-04-24T11:26:48;12.70;45.90
3478;DHT22;37937;61.490;23.506;2023-04-24T11:29:13;12.40;50.60
3478;DHT22;37937;61.490;23.506;2023-04-24T11:31:40;12.60;50.00
3478;DHT22;37937;61.490;23.506;2023-04-24T11:34:13;12.80;47.20
3478;DHT22;37937;61.490;23.506;2023-04-24T11:36:40;13.00;48.30
3478;DHT22;37937;61.490;23.506;2023-04-24T11:39:05;12.90;45.00
3478;DHT22;37937;61.490;23.506;2023-04-24T11:41:32;12.80;42.10
3478;DHT22;37937;61.490;23.506;2023-04-24T11:43:58;12.50;46.30
3478;DHT22;37937;61.490;23.506;2023-04-24T11:46:27;12.80;43.00
3478;DHT22;37937;61.490;23.506;2023-04-24T11:48:52;13.20;45.80
3478;DHT22;37937;61.490;23.506;2023-04-24T11:51:18;12.60;39.10
3478;DHT22;37937;61.490;23.506;2023-04-24T11:53:44;12.30;44.30
3478;DHT22;37937;61.490;23.506;2023-04-24T11:56:09;12.60;42.40
3478;DHT22;37937;61.490;23.506;2023-04-24T11:58:35;12.50;41.10
3478;DHT22;37937;61.490;23.506;2023-04-24T12:01:01;12.50;41.60
3478;DHT22;37937;61.490;23.506;2023-04-24T12:03:27;12.70;43.00
3478;DHT22;37937;61.490;23.506;2023-04-24T12:05:52;12.70;42.30
3478;DHT22;37937;61.490;23.506;2023-04-24T12:08:29;12.60;43.50
3478;DHT22;37937;61.490;23.506;2023-04-24T12:10:55;12.60;41.60
3478;DHT22;37937;61.490;23.506;2023-04-24T12:13:21;12.50;42.90
3478;DHT22;37937;61.490;23.506;2023-04-24T12:15:46;12.50;41.00
3478;DHT22;37937;61.490;23.506;2023-04-24T12:18:12;12.40;43.50
3478;DHT22;37937;61.490;23.506;2023-04-24T12:20:40;12.70;42.60
3478;DHT22;37937;61.490;23.506;2023-04-24T12:23:05;12.70;40.80
3478;DHT22;37937;61.490;23.506;2023-04-24T12:25:32;12.50;39.70
3478;DHT22;37937;61.490;23.506;2023-04-24T12:30:30;12.60;41.40
3478;DHT22;37937;61.490;23.506;2023-04-24T12:32:57;12.60;41.60
3478;DHT22;37937;61.490;23.506;2023-04-24T12:35:23;12.60;41.40
3478;DHT22;37937;61.490;23.506;2023-04-24T12:37:49;12.60;40.20
3478;DHT22;37937;61.490;23.506;2023-04-24T12:40:15;12.70;39.30
3478;DHT22;37937;61.490;23.506;2023-04-24T12:42:44;12.80;40.10
3478;DHT22;37937;61.490;23.506;2023-04-24T12:45:10;12.40;36.50
3478;DHT22;37937;61.490;23.506;2023-04-24T12:47:37;11.90;39.20
3478;DHT22;37937;61.490;23.506;2023-04-24T12:50:03;11.90;41.40
3478;DHT22;37937;61.490;23.506;2023-04-24T12:52:29;12.10;43.30
3478;DHT22;37937;61.490;23.506;2023-04-24T12:54:56;12.10;39.00
3478;DHT22;37937;61.490;23.506;2023-04-24T12:57:22;11.80;41.80
3478;DHT22;37937;61.490;23.506;2023-04-24T12:59:48;12.00;38.80
3478;DHT22;37937;61.490;23.506;2023-04-24T13:02:14;11.40;43.40
3478;DHT22;37937;61.490;23.506;2023-04-24T13:04:46;11.40;41.60
3478;DHT22;37937;61.490;23.506;2023-04-24T13:07:12;11.50;41.40
3478;DHT22;37937;61.490;23.506;2023-04-24T13:09:39;11.60;42.20
3478;DHT22;37937;61.490;23.506;2023-04-24T13:12:04;11.20;42.90
3478;DHT22;37937;61.490;23.506;2023-04-24T13:14:31;11.30;42.10
3478;DHT22;37937;61.490;23.506;2023-04-24T13:16:56;11.30;41.00
3478;DHT22;37937;61.490;23.506;2023-04-24T13:19:24;11.40;42.90
3478;DHT22;37937;61.490;23.506;2023-04-24T13:21:49;11.50;42.20
3478;DHT22;37937;61.490;23.506;2023-04-24T13:24:15;11.30;43.40
3478;DHT22;37937;61.490;23.506;2023-04-24T13:26:41;11.20;44.00
3478;DHT22;37937;61.490;23.506;2023-04-24T13:29:06;11.30;45.90
3478;DHT22;37937;61.490;23.506;2023-04-24T13:31:32;11.20;44.30
3478;DHT22;37937;61.490;23.506;2023-04-24T13:33:58;11.10;45.70
3478;DHT22;37937;61.490;23.506;2023-04-24T13:36:23;11.00;43.80
3478;DHT22;37937;61.490;23.506;2023-04-24T13:38:49;10.80;45.90
3478;DHT22;37937;61.490;23.506;2023-04-24T13:41:15;10.80;45.60
3478;DHT22;37937;61.490;23.506;2023-04-24T13:43:40;10.60;47.90
3478;DHT22;37937;61.490;23.506;2023-04-24T13:46:08;10.80;44.80
3478;DHT22;37937;61.490;23.506;2023-04-24T13:48:34;10.70;48.60
3478;DHT22;37937;61.490;23.506;2023-04-24T13:50:59;10.90;44.20
3478;DHT22;37937;61.490;23.506;2023-04-24T13:53:25;10.80;45.70
3478;DHT22;37937;61.490;23.506;2023-04-24T13:55:51;10.50;45.00
3478;DHT22;37937;61.490;23.506;2023-04-24T13:58:17;10.70;46.60
3478;DHT22;37937;61.490;23.506;2023-04-24T14:00:42;10.90;45.70
3478;DHT22;37937;61.490;23.506;2023-04-24T14:03:08;10.80;45.40
3478;DHT22;37937;61.490;23.506;2023-04-24T14:05:34;10.70;44.60
3478;DHT22;37937;61.490;23.506;2023-04-24T14:07:59;10.80;44.70
3478;DHT22;37937;61.490;23.506;2023-04-24T14:10:25;10.60;45.50
3478;DHT22;37937;61.490;23.506;2023-04-24T14:12:52;10.40;44.20
3478;DHT22;37937;61.490;23.506;2023-04-24T14:15:18;10.10;45.90
3478;DHT22;37937;61.490;23.506;2023-04-24T14:17:44;9.80;48.70
3478;DHT22;37937;61.490;23.506;2023-04-24T14:20:09;9.50;49.40
3478;DHT22;37937;61.490;23.506;2023-04-24T14:22:35;9.80;51.60
3478;DHT22;37937;61.490;23.506;2023-04-24T14:25:01;10.20;49.70
3478;DHT22;37937;61.490;23.506;2023-04-24T14:27:26;10.50;48.50
3478;DHT22;37937;61.490;23.506;2023-04-24T14:29:52;10.40;47.30
3478;DHT22;37937;61.490;23.506;2023-04-24T14:32:18;10.70;49.50
3478;DHT22;37937;61.490;23.506;2023-04-24T14:34:43;10.20;46.10
3478;DHT22;37937;61.490;23.506;2023-04-24T14:37:09;10.00;48.30
3478;DHT22;37937;61.490;23.506;2023-04-24T14:39:35;9.80;49.00
3478;DHT22;37937;61.490;23.506;2023-04-24T14:42:00;9.60;49.00
3478;DHT22;37937;61.490;23.506;2023-04-24T14:44:26;10.00;48.60
3478;DHT22;37937;61.490;23.506;2023-04-24T14:46:52;10.00;47.90
3478;DHT22;37937;61.490;23.506;2023-04-24T14:49:18;9.90;47.50
3478;DHT22;37937;61.490;23.506;2023-04-24T14:51:44;9.80;50.00
3478;DHT22;37937;61.490;23.506;2023-04-24T14:54:09;9.70;48.30
3478;DHT22;37937;61.490;23.506;2023-04-24T14:56:35;9.70;47.80
3478;DHT22;37937;61.490;23.506;2023-04-24T14:59:01;9.60;51.20
3478;DHT22;37937;61.490;23.506;2023-04-24T15:01:26;9.50;50.10
3478;DHT22;37937;61.490;23.506;2023-04-24T15:03:52;9.80;51.00
3478;DHT22;37937;61.490;23.506;2023-04-24T15:06:17;9.70;49.40
3478;DHT22;37937;61.490;23.506;2023-04-24T15:08:43;9.60;51.10
3478;DHT22;37937;61.490;23.506;2023-04-24T15:11:10;9.80;49.80
3478;DHT22;37937;61.490;23.506;2023-04-24T15:13:36;9.90;50.60
3478;DHT22;37937;61.490;23.506;2023-04-24T15:16:01;9.60;47.90
3478;DHT22;37937;61.490;23.506;2023-04-24T15:18:27;9.30;49.50
3478;DHT22;37937;61.490;23.506;2023-04-24T15:20:54;9.20;51.20
3478;DHT22;37937;61.490;23.506;2023-04-24T15:23:20;9.20;52.80
3478;DHT22;37937;61.490;23.506;2023-04-24T15:25:46;9.40;51.90
3478;DHT22;37937;61.490;23.506;2023-04-24T15:28:11;8.90;52.10
3478;DHT22;37937;61.490;23.506;2023-04-24T15:30:37;8.90;53.60
3478;DHT22;37937;61.490;23.506;2023-04-24T15:33:03;8.90;52.90
3478;DHT22;37937;61.490;23.506;2023-04-24T15:35:28;8.60;53.10
3478;DHT22;37937;61.490;23.506;2023-04-24T15:37:54;8.40;54.40
3478;DHT22;37937;61.490;23.506;2023-04-24T15:40:20;8.30;55.80
3478;DHT22;37937;61.490;23.506;2023-04-24T15:42:45;8.30;56.60
3478;DHT22;37937;61.490;23.506;2023-04-24T15:45:11;8.30;56.40
3478;DHT22;37937;61.490;23.506;2023-04-24T15:47:37;8.30;57.10